Time;durP1;ratioP1;P1;durP2;ratioP2;P2;SDS_P1;SDS_P2;PMS_P1;PMS_P2;Temp;Humidity;BMP_temperature;BMP_pressure;BME280_temperature;BME280_humidity;BME280_pressure;Samples;Min_cycle;Max_cycle;Signal;HPM_P1;HPM_P2
2023/12/24 22:05:59;;;;;;;0.20;0.20;;;;;;;12.59;100.00;96406.13;5071071;27;20390;-80
2023/12/24 22:08:27;;;;;;;0.52;0.20;;;;;;;12.65;100.00;96387.59;5050837;28;20113;-79
2023/12/24 22:10:54;;;;;;;0.45;0.28;;;;;;;12.45;100.00;96370.53;5062637;28;20129;-79
2023/12/24 22:13:23;;;;;;;0.68;0.20;;;;;;;12.45;100.00;96403.91;5063863;28;20136;-79
2023/12/24 22:15:50;;;;;;;0.40;0.30;;;;;;;12.54;100.00;96392.84;5037349;28;20069;-78
2023/12/24 22:18:16;;;;;;;0.15;0.15;;;;;;;12.65;100.00;96395.75;5062441;28;20045;-78
2023/12/24 22:20:43;;;;;;;0.20;0.20;;;;;;;12.65;100.00;96398.47;5062813;28;20520;-78
2023/12/24 22:23:10;;;;;;;0.60;0.25;;;;;;;12.67;100.00;96393.47;5066514;28;20049;-79
2023/12/24 22:25:37;;;;;;;0.28;0.20;;;;;;;12.68;100.00;96384.16;5044042;28;20068;-79
2023/12/24 22:28:04;;;;;;;0.25;0.13;;;;;;;12.66;100.00;96383.75;5031836;28;20531;-79
2023/12/24 22:30:31;;;;;;;0.55;0.30;;;;;;;12.74;100.00;96401.75;5063152;28;20040;-77
2023/12/24 22:32:57;;;;;;;0.20;0.20;;;;;;;12.79;100.00;96394.09;5032394;28;20038;-77
2023/12/24 22:35:25;;;;;;;1.65;0.17;;;;;;;12.74;100.00;96377.31;5063855;28;20045;-79
2023/12/24 22:37:53;;;;;;;0.90;0.10;;;;;;;12.72;100.00;96382.31;5062942;28;21491;-79
2023/12/24 22:40:20;;;;;;;0.40;0.13;;;;;;;12.63;100.00;96377.09;5067983;28;20415;-77
2023/12/24 22:42:47;;;;;;;0.40;0.20;;;;;;;12.62;100.00;96389.09;5050573;28;20084;-78
2023/12/24 22:45:14;;;;;;;0.10;0.10;;;;;;;12.75;100.00;96395.94;5068088;28;20060;-78
2023/12/24 22:47:41;;;;;;;0.40;0.25;;;;;;;12.71;100.00;96408.69;5066610;28;20427;-78
2023/12/24 22:50:08;;;;;;;0.45;0.30;;;;;;;12.72;100.00;96382.31;5074605;28;20048;-78
2023/12/24 22:52:35;;;;;;;0.13;0.13;;;;;;;12.79;100.00;96407.69;5072044;28;20052;-77
2023/12/24 22:55:03;;;;;;;0.30;0.20;;;;;;;12.73;100.00;96424.59;5065466;28;20041;-79
2023/12/24 22:57:30;;;;;;;0.50;0.20;;;;;;;12.65;100.00;96420.19;5074343;28;20287;-79
2023/12/24 22:59:56;;;;;;;0.98;0.20;;;;;;;12.77;100.00;96415.41;5066381;28;20100;-78
2023/12/24 23:02:23;;;;;;;0.52;0.30;;;;;;;12.70;100.00;96425.34;5063450;28;20101;-79
2023/12/24 23:04:50;;;;;;;0.28;0.22;;;;;;;12.49;100.00;96412.88;5070109;28;20045;-80
2023/12/24 23:07:17;;;;;;;0.70;0.50;;;;;;;12.21;100.00;96411.50;5057300;28;20065;-79
2023/12/24 23:09:44;;;;;;;0.65;0.30;;;;;;;12.34;100.00;96402.88;5064790;28;20051;-78
2023/12/24 23:12:10;;;;;;;0.55;0.20;;;;;;;12.19;100.00;96420.00;5071420;28;20051;-78
2023/12/24 23:14:37;;;;;;;0.45;0.28;;;;;;;12.18;100.00;96407.56;5067542;28;20049;-79
2023/12/24 23:17:04;;;;;;;0.20;0.20;;;;;;;12.11;100.00;96402.00;5043164;28;20061;-79
2023/12/24 23:19:34;;;;;;;0.32;0.30;;;;;;;12.10;100.00;96434.91;5061120;28;20052;-79
2023/12/24 23:22:01;;;;;;;0.60;0.30;;;;;;;12.30;100.00;96426.47;5026422;28;20083;-79
2023/12/24 23:24:28;;;;;;;0.28;0.20;;;;;;;12.35;100.00;96430.81;5027079;28;20540;-78
2023/12/24 23:26:55;;;;;;;0.63;0.28;;;;;;;12.31;100.00;96422.59;5024421;28;20041;-78
2023/12/24 23:29:22;;;;;;;0.90;0.30;;;;;;;12.46;100.00;96402.75;5051528;28;20061;-78
2023/12/24 23:31:49;;;;;;;0.20;0.20;;;;;;;12.52;100.00;96421.50;5029065;28;20054;-79
2023/12/24 23:34:16;;;;;;;0.98;0.30;;;;;;;12.44;100.00;96436.81;5027078;28;20136;-79
2023/12/24 23:36:43;;;;;;;1.73;0.30;;;;;;;12.48;100.00;96434.97;5039967;28;20471;-78
2023/12/24 23:39:10;;;;;;;1.88;0.25;;;;;;;12.39;100.00;96434.38;5033661;28;20042;-79
2023/12/24 23:41:37;;;;;;;1.08;0.30;;;;;;;12.21;100.00;96447.56;5047778;28;20049;-78
2023/12/24 23:44:05;;;;;;;2.00;0.40;;;;;;;12.26;100.00;96452.72;5052330;28;20056;-78
2023/12/24 23:46:32;;;;;;;0.65;0.30;;;;;;;12.23;100.00;96474.34;5054445;28;20662;-78
2023/12/24 23:48:58;;;;;;;1.92;0.38;;;;;;;12.05;100.00;96470.44;5037993;28;20053;-79
2023/12/24 23:51:25;;;;;;;2.55;0.50;;;;;;;12.05;100.00;96470.44;5041276;28;20045;-77
2023/12/24 23:53:54;;;;;;;1.40;0.40;;;;;;;12.13;100.00;96493.91;5039152;28;20057;-79
2023/12/24 23:56:21;;;;;;;1.10;0.50;;;;;;;12.01;100.00;96488.56;5046660;28;20046;-79
2023/12/24 23:58:48;;;;;;;0.93;0.50;;;;;;;11.77;100.00;96489.53;5043291;28;20042;-78
